Time;durP1;ratioP1;P1;durP2;ratioP2;P2;SDS_P1;SDS_P2;PMS_P1;PMS_P2;Temp;Humidity;BMP_temperature;BMP_pressure;BME280_temperature;BME280_humidity;BME280_pressure;Samples;Min_cycle;Max_cycle;Signal;HPM_P1;HPM_P2
2022/07/30 00:02:18;;;;;;;1.73;1.43;;;;;;;;;;6206571;23;20370;-90
2022/07/30 00:04:44;;;;;;;2.40;1.60;;;;;;;;;;6210129;23;20005;-90
2022/07/30 00:07:10;;;;;;;7.60;1.75;;;;;;;;;;6211759;23;20009;-89
2022/07/30 00:09:36;;;;;;;2.15;1.50;;;;;;;;;;6209569;23;20005;-90
2022/07/30 00:12:02;;;;;;;6.82;1.08;;;;;;;;;;6207514;23;20390;-91
2022/07/30 00:14:28;;;;;;;1.77;1.30;;;;;;;;;;6206482;23;20012;-90
2022/07/30 00:16:54;;;;;;;4.38;1.55;;;;;;;;;;6210535;23;20070;-90
2022/07/30 00:19:20;;;;;;;2.63;1.45;;;;;;;;;;6209928;23;20020;-91
2022/07/30 00:21:46;;;;;;;3.38;1.23;;;;;;;;;;6207845;23;20028;-90
2022/07/30 00:24:12;;;;;;;3.65;2.05;;;;;;;;;;6206667;23;20333;-90
2022/07/30 00:26:38;;;;;;;1.77;1.25;;;;;;;;;;6210825;23;20265;-91
2022/07/30 00:29:05;;;;;;;2.13;1.30;;;;;;;;;;6208655;23;20036;-90
2022/07/30 00:31:31;;;;;;;1.17;0.80;;;;;;;;;;6208144;23;20028;-90
2022/07/30 00:33:57;;;;;;;2.13;1.50;;;;;;;;;;6207224;23;20009;-89
2022/07/30 00:36:23;;;;;;;4.80;1.52;;;;;;;;;;6209943;23;20622;-89
2022/07/30 00:38:49;;;;;;;2.25;1.45;;;;;;;;;;6210155;23;20088;-89
2022/07/30 00:41:15;;;;;;;1.45;1.35;;;;;;;;;;6208302;23;19997;-90
2022/07/30 00:43:41;;;;;;;2.38;1.52;;;;;;;;;;6207106;23;20001;-90
2022/07/30 00:46:07;;;;;;;1.73;1.00;;;;;;;;;;6209636;23;20454;-89
2022/07/30 00:48:33;;;;;;;3.88;1.98;;;;;;;;;;6208568;23;20616;-90
2022/07/30 00:50:59;;;;;;;1.80;1.50;;;;;;;;;;6209488;23;20004;-89
2022/07/30 00:53:25;;;;;;;1.23;1.10;;;;;;;;;;6205985;23;20059;-90
2022/07/30 00:55:51;;;;;;;4.57;1.00;;;;;;;;;;6208980;23;20005;-90
2022/07/30 00:58:17;;;;;;;2.58;1.23;;;;;;;;;;6212441;23;20439;-90
2022/07/30 01:00:43;;;;;;;2.10;1.42;;;;;;;;;;6211356;23;20104;-91
2022/07/30 01:03:09;;;;;;;1.30;1.02;;;;;;;;;;6207703;23;20000;-89
2022/07/30 01:05:35;;;;;;;2.22;1.13;;;;;;;;;;6212955;23;20545;-90
2022/07/30 01:08:01;;;;;;;2.35;1.30;;;;;;;;;;6211578;23;20549;-90
2022/07/30 01:10:27;;;;;;;3.08;1.88;;;;;;;;;;6210130;23;20012;-89
2022/07/30 01:12:53;;;;;;;2.65;2.13;;;;;;;;;;6204936;23;20008;-89
2022/07/30 01:15:19;;;;;;;2.50;1.55;;;;;;;;;;6213513;23;20009;-90
2022/07/30 01:17:49;;;;;;;6.60;1.27;;;;;;;;;;6210267;23;20012;-91
2022/07/30 01:20:18;;;;;;;2.65;1.23;;;;;;;;;;6209895;23;20044;-90
2022/07/30 01:23:16;;;;;;;4.65;1.23;;;20.50;58.80;;;;;;6206177;23;20015;-89
2022/07/30 01:25:51;;;;;;;0.70;0.70;;;;;;;;;;6213121;23;20008;-90
2022/07/30 01:28:19;;;;;;;1.33;1.10;;;;;;;;;;6209480;23;20004;-89
2022/07/30 01:30:44;;;;;;;;;;;20.20;59.30;;;;;;6214394;23;20001;-90
2022/07/30 01:33:12;;;;;;;4.28;1.20;;;;;;;;;;6205120;23;19900;-90
2022/07/30 01:35:40;;;;;;;2.40;1.42;;;20.20;59.60;;;;;;6213096;23;20079;-89
2022/07/30 01:38:06;;;;;;;3.03;1.48;;;;;;;;;;6209450;23;20016;-89
2022/07/30 01:40:34;;;;;;;2.97;1.40;;;20.50;59.40;;;;;;6210227;23;20183;-90
2022/07/30 01:43:00;;;;;;;3.88;1.05;;;;;;;;;;6205615;23;20031;-90
2022/07/30 01:45:29;;;;;;;2.25;1.63;;;20.70;58.80;;;;;;6213490;23;20437;-90
2022/07/30 01:47:59;;;;;;;2.47;1.42;;;;;;;;;;6211885;23;19997;-89
2022/07/30 01:50:25;;;;;;;2.15;1.27;;;;;;;;;;6211103;23;20443;-88
2022/07/30 01:52:52;;;;;;;4.15;1.40;;;;;;;;;;6206644;23;20012;-90
2022/07/30 01:55:21;;;;;;;1.13;0.82;;;;;;;;;;6213068;23;20623;-89
2022/07/30 01:57:47;;;;;;;1.45;0.90;;;;;;;;;;6210791;23;20005;-89
2022/07/30 02:00:13;;;;;;;7.00;0.85;;;;;;;;;;6210789;23;20032;-89
2022/07/30 02:02:40;;;;;;;1.20;0.70;;;;;;;;;;6206144;23;20009;-89
2022/07/30 02:05:07;;;;;;;3.53;1.05;;;;;;;;;;6212342;23;20466;-89
2022/07/30 02:07:33;;;;;;;1.05;0.77;;;;;;;;;;6211238;23;20008;-89
2022/07/30 02:10:02;;;;;;;2.25;0.93;;;;;;;;;;6210566;23;20015;-89
2022/07/30 02:12:29;;;;;;;2.38;1.38;;;;;;;;;;6205070;23;20016;-91
2022/07/30 02:15:07;;;;;;;2.83;0.90;;;;;;;;;;6212398;23;20005;-90
2022/07/30 02:17:38;;;;;;;1.40;1.08;;;;;;;;;;6211615;23;20013;-89
2022/07/30 02:20:04;;;;;;;2.30;1.25;;;;;;;;;;6208825;23;20024;-89
2022/07/30 02:22:33;;;;;;;4.70;1.67;;;;;;;;;;6201921;23;20012;-90
2022/07/30 02:25:00;;;;;;;1.23;1.05;;;;;;;;;;6211673;23;20451;-89
2022/07/30 02:27:29;;;;;;;3.78;1.45;;;20.20;59.90;;;;;;6211521;23;20027;-90
2022/07/30 02:29:56;;;;;;;3.05;1.70;;;;;;;;;;6209814;23;20043;-89
2022/07/30 02:32:23;;;;;;;4.32;1.48;;;;;;;;;;6207669;23;20092;-89
2022/07/30 02:34:57;;;;;;;3.05;1.33;;;20.10;60.20;;;;;;6210209;23;20005;-88
2022/07/30 02:37:24;;;;;;;1.52;1.02;;;;;;;;;;6209966;23;20008;-90
2022/07/30 02:39:51;;;;;;;1.75;1.10;;;;;;;;;;6210102;23;20016;-89
2022/07/30 02:42:18;;;;;;;4.18;1.13;;;;;;;;;;6206289;23;20080;-91
2022/07/30 02:44:44;;;;;;;;;;;18.70;63.70;;;;;;6210762;23;20028;-88
2022/07/30 02:47:12;;;;;;;1.92;1.05;;;;;;;;;;6211933;23;19907;-89
2022/07/30 02:49:41;;;;;;;;;;;19.20;62.70;;;;;;6209810;23;20008;-89
2022/07/30 02:52:11;;;;;;;3.63;1.10;;;;;;;;;;6207756;23;19903;-90
2022/07/30 02:54:37;;;;;;;4.20;0.93;;;;;;;;;;6208827;23;20004;-91
2022/07/30 02:57:03;;;;;;;7.63;1.10;;;;;;;;;;6209926;23;20019;-90
2022/07/30 02:59:30;;;;;;;5.68;1.20;;;;;;;;;;6210000;23;20060;-89
2022/07/30 03:01:56;;;;;;;1.08;0.98;;;;;;;;;;6209842;23;20008;-89
2022/07/30 03:04:22;;;;;;;1.40;1.25;;;;;;;;;;6208714;23;20016;-89
2022/07/30 03:06:49;;;;;;;3.30;1.38;;;;;;;;;;6210645;23;20000;-90
2022/07/30 03:09:16;;;;;;;2.87;1.20;;;;;;;;;;6210034;23;20004;-90
2022/07/30 03:11:42;;;;;;;3.05;1.40;;;;;;;;;;6208427;23;20019;-90
2022/07/30 03:14:09;;;;;;;2.38;1.42;;;;;;;;;;6207151;23;20004;-90
2022/07/30 03:16:37;;;;;;;2.05;1.05;;;20.10;58.90;;;;;;6210915;23;20066;-90
2022/07/30 03:19:05;;;;;;;;;;;19.30;61.00;;;;;;6211062;23;20533;-90
2022/07/30 03:21:33;;;;;;;5.03;1.65;;;;;;;;;;6208357;23;19922;-90
2022/07/30 03:24:02;;;;;;;2.08;1.33;;;;;;;;;;6207306;23;20004;-89
2022/07/30 03:26:29;;;;;;;1.63;1.20;;;18.60;63.50;;;;;;6210686;23;20004;-90
2022/07/30 03:28:56;;;;;;;1.50;1.15;;;;;;;;;;6208716;23;20032;-90
2022/07/30 03:31:22;;;;;;;3.28;1.25;;;;;;;;;;6209400;23;20761;-89
2022/07/30 03:33:48;;;;;;;6.75;2.10;;;;;;;;;;6205899;23;20039;-91
2022/07/30 03:36:15;;;;;;;1.65;1.42;;;;;;;;;;6210563;23;20008;-90
2022/07/30 03:38:41;;;;;;;1.73;1.23;;;;;;;;;;6210455;23;20013;-90
2022/07/30 03:41:08;;;;;;;2.58;1.35;;;;;;;;;;6209982;23;20009;-89
2022/07/30 03:43:34;;;;;;;1.75;1.10;;;19.50;60.60;;;;;;6206607;23;20005;-90
2022/07/30 03:46:02;;;;;;;1.50;1.27;;;;;;;;;;6210697;23;20001;-88
2022/07/30 03:48:28;;;;;;;3.95;1.20;;;;;;;;;;6210139;23;20005;-89
2022/07/30 03:50:55;;;;;;;3.08;1.58;;;;;;;;;;6209820;23;20011;-89
2022/07/30 03:53:24;;;;;;;2.17;1.92;;;;;;;;;;6205075;23;20005;-90
2022/07/30 03:55:51;;;;;;;5.18;1.02;;;18.50;64.40;;;;;;6209944;23;20487;-89
2022/07/30 03:58:17;;;;;;;2.20;1.00;;;;;;;;;;6209468;23;20039;-90
2022/07/30 04:00:46;;;;;;;2.10;1.08;;;;;;;;;;6210119;23;21210;-89
2022/07/30 04:03:12;;;;;;;1.40;1.17;;;;;;;;;;6206210;23;20005;-90
2022/07/30 04:05:38;;;;;;;5.90;1.30;;;;;;;;;;6210543;23;20012;-90
2022/07/30 04:08:04;;;;;;;1.98;1.45;;;;;;;;;;6210691;23;20348;-90
2022/07/30 04:10:30;;;;;;;1.52;0.98;;;;;;;;;;6209953;23;20076;-89
2022/07/30 04:12:56;;;;;;;4.22;1.70;;;;;;;;;;6205054;23;20602;-89
2022/07/30 04:15:22;;;;;;;1.80;1.10;;;;;;;;;;6209947;23;20008;-90
2022/07/30 04:17:51;;;;;;;1.33;1.17;;;;;;;;;;6209013;23;20056;-89
2022/07/30 04:20:20;;;;;;;3.00;1.48;;;18.80;62.90;;;;;;6209125;23;20016;-89
2022/07/30 04:22:47;;;;;;;3.13;1.27;;;;;;;;;;6202545;23;20039;-90
2022/07/30 04:25:13;;;;;;;2.63;1.25;;;;;;;;;;6208767;23;20008;-90
2022/07/30 04:27:40;;;;;;;3.72;1.65;;;;;;;;;;6208596;23;20097;-89
2022/07/30 04:30:06;;;;;;;2.80;1.10;;;;;;;;;;6208634;23;20008;-89
2022/07/30 04:32:32;;;;;;;1.30;1.20;;;;;;;;;;6207361;23;20059;-88
2022/07/30 04:34:58;;;;;;;3.35;1.17;;;;;;;;;;6208745;23;20631;-89
2022/07/30 04:37:25;;;;;;;2.17;1.30;;;;;;;;;;6210787;23;20021;-89
2022/07/30 04:39:56;;;;;;;1.55;1.35;;;;;;;;;;6207794;23;20628;-89
2022/07/30 04:42:26;;;;;;;3.08;1.23;;;;;;;;;;6206599;23;20021;-88
2022/07/30 04:44:52;;;;;;;1.95;1.20;;;;;;;;;;6201197;23;20009;-90
2022/07/30 04:47:18;;;;;;;1.13;1.02;;;;;;;;;;6208942;23;20004;-90
2022/07/30 04:49:46;;;;;;;2.85;1.20;;;18.90;62.90;;;;;;6208653;23;20009;-89
2022/07/30 04:52:12;;;;;;;1.33;1.15;;;;;;;;;;6206458;23;20566;-90
2022/07/30 04:54:44;;;;;;;4.80;1.65;;;19.00;62.30;;;;;;6208387;23;20060;-90
2022/07/30 04:57:10;;;;;;;1.35;0.80;;;;;;;;;;6209495;23;20005;-89
2022/07/30 04:59:36;;;;;;;1.75;0.98;;;;;;;;;;6208784;23;20478;-89
2022/07/30 05:02:03;;;;;;;1.92;1.10;;;;;;;;;;6208378;23;20056;-89
2022/07/30 05:04:31;;;;;;;2.25;1.05;;;;;;;;;;6207294;23;20059;-89
2022/07/30 05:06:58;;;;;;;3.85;2.38;;;;;;;;;;6209415;23;20008;-89
2022/07/30 05:09:24;;;;;;;2.10;1.27;;;;;;;;;;6208099;23;20029;-89
2022/07/30 05:11:51;;;;;;;3.22;2.05;;;;;;;;;;6209027;23;20009;-90
2022/07/30 05:14:17;;;;;;;1.83;1.08;;;;;;;;;;6207554;23;20347;-90
2022/07/30 05:16:43;;;;;;;1.70;1.38;;;;;;;;;;6210619;23;20495;-89
2022/07/30 05:19:09;;;;;;;2.33;1.23;;;;;;;;;;6205112;23;20020;-90
2022/07/30 05:21:35;;;;;;;3.60;2.00;;;;;;;;;;6148242;23;1382068;-87
2022/07/30 05:24:01;;;;;;;2.08;1.73;;;;;;;;;;6205209;23;20455;-88
2022/07/30 05:26:27;;;;;;;6.25;1.30;;;;;;;;;;6207333;23;20043;-88
2022/07/30 05:28:53;;;;;;;1.30;1.20;;;;;;;;;;6206968;23;20015;-87
2022/07/30 05:31:19;;;;;;;2.17;1.15;;;;;;;;;;6206448;23;20001;-89
2022/07/30 05:33:45;;;;;;;2.20;1.48;;;;;;;;;;6205147;23;20011;-88
2022/07/30 05:36:12;;;;;;;1.63;1.50;;;;;;;;;;6207930;23;20000;-89
2022/07/30 05:38:38;;;;;;;3.60;1.80;;;;;;;;;;6209686;23;20031;-87
2022/07/30 05:41:04;;;;;;;2.28;1.42;;;;;;;;;;6208141;23;20035;-86
2022/07/30 05:43:30;;;;;;;2.53;1.42;;;;;;;;;;6207178;23;20004;-88
2022/07/30 05:45:56;;;;;;;5.05;1.80;;;;;;;;;;6209320;23;20015;-87
2022/07/30 05:48:22;;;;;;;2.45;1.42;;;;;;;;;;6207874;23;20803;-87
2022/07/30 05:50:48;;;;;;;2.67;2.08;;;;;;;;;;6208420;23;20005;-88
2022/07/30 05:53:14;;;;;;;2.88;1.80;;;;;;;;;;6206322;23;20444;-89
2022/07/30 05:55:40;;;;;;;4.57;1.58;;;;;;;;;;6209172;23;20028;-88
2022/07/30 05:58:06;;;;;;;2.83;1.45;;;;;;;;;;6210535;23;20012;-88
2022/07/30 06:00:34;;;;;;;3.00;1.85;;;;;;;;;;6207874;23;20063;-89
2022/07/30 06:03:00;;;;;;;8.10;2.28;;;;;;;;;;6208777;23;20001;-89
2022/07/30 06:05:27;;;;;;;4.88;1.73;;;;;;;;;;6211660;23;20022;-90
2022/07/30 06:07:53;;;;;;;2.10;1.40;;;;;;;;;;6212301;23;20016;-90
2022/07/30 06:10:19;;;;;;;2.00;1.70;;;;;;;;;;6207562;23;20009;-90
2022/07/30 06:12:45;;;;;;;3.35;1.42;;;;;;;;;;6208685;23;20008;-91
2022/07/30 06:15:11;;;;;;;2.15;1.35;;;;;;;;;;6211473;23;20809;-90
2022/07/30 06:17:41;;;;;;;11.25;1.63;;;21.10;61.00;;;;;;6210909;23;20024;-91
2022/07/30 06:20:08;;;;;;;8.13;1.13;;;;;;;;;;6206978;23;20015;-91
2022/07/30 06:22:34;;;;;;;2.63;1.25;;;;;;;;;;6208697;23;20019;-90
2022/07/30 06:25:00;;;;;;;3.03;1.45;;;;;;;;;;6207376;23;20068;-87
2022/07/30 06:27:26;;;;;;;1.90;1.30;;;;;;;;;;6210131;23;20058;-89
2022/07/30 06:29:52;;;;;;;7.93;1.33;;;;;;;;;;6209873;23;20008;-89
2022/07/30 06:32:18;;;;;;;4.53;1.65;;;;;;;;;;6210034;23;20005;-89
2022/07/30 06:34:44;;;;;;;3.63;1.42;;;;;;;;;;6211850;23;20080;-89
2022/07/30 06:37:10;;;;;;;1.88;1.25;;;;;;;;;;6213636;23;20083;-89
2022/07/30 06:39:36;;;;;;;1.48;1.15;;;;;;;;;;6213601;23;20012;-90
2022/07/30 06:42:03;;;;;;;2.70;1.40;;;;;;;;;;6212130;23;20009;-90
2022/07/30 06:44:29;;;;;;;2.03;0.98;;;;;;;;;;6211720;23;20031;-90
2022/07/30 06:46:55;;;;;;;2.17;1.98;;;;;;;;;;6212307;23;20328;-91
2022/07/30 06:49:21;;;;;;;2.08;1.42;;;;;;;;;;6213200;23;20004;-90
2022/07/30 06:51:47;;;;;;;5.80;1.17;;;;;;;;;;6213371;23;20008;-91
2022/07/30 06:54:13;;;;;;;3.92;1.10;;;;;;;;;;6212150;23;19996;-89
2022/07/30 06:56:39;;;;;;;4.90;1.17;;;;;;;;;;6213682;23;20051;-89
2022/07/30 06:59:05;;;;;;;2.17;1.45;;;;;;;;;;6213258;23;20020;-90
2022/07/30 07:01:31;;;;;;;2.75;1.77;;;;;;;;;;6213221;23;20030;-89
2022/07/30 07:03:57;;;;;;;4.72;1.48;;;;;;;;;;6213851;23;20004;-89
2022/07/30 07:06:23;;;;;;;4.72;2.30;;;;;;;;;;6211740;23;20436;-90
2022/07/30 07:08:49;;;;;;;2.10;1.80;;;;;;;;;;6211564;23;20016;-90
2022/07/30 07:11:15;;;;;;;7.82;1.70;;;;;;;;;;6210543;23;20004;-90
2022/07/30 07:13:42;;;;;;;2.13;1.63;;;;;;;;;;6210930;23;20019;-91
2022/07/30 07:16:08;;;;;;;1.52;1.42;;;;;;;;;;6210962;23;20008;-91
2022/07/30 07:18:34;;;;;;;8.70;1.67;;;;;;;;;;6209567;23;20039;-90
2022/07/30 07:21:00;;;;;;;4.70;1.73;;;;;;;;;;6211225;23;20017;-90
2022/07/30 07:23:26;;;;;;;3.28;1.67;;;;;;;;;;6212773;23;20011;-90
2022/07/30 07:25:52;;;;;;;2.08;1.50;;;;;;;;;;6211565;23;20005;-90
2022/07/30 07:28:18;;;;;;;1.67;1.20;;;;;;;;;;6211842;23;20345;-90
2022/07/30 07:30:44;;;;;;;2.45;1.52;;;;;;;;;;6212453;23;20007;-89
2022/07/30 07:33:10;;;;;;;1.83;1.40;;;;;;;;;;6210884;23;20631;-90
2022/07/30 07:35:37;;;;;;;1.50;1.30;;;;;;;;;;6212991;23;20027;-90
2022/07/30 09:49:14;;;;;;;1.00;0.57;;;;;;;;;;6168297;23;20291;-96
2022/07/30 09:54:15;;;;;;;1.40;0.67;;;;;;;;;;6218241;22;20024;-96
2022/07/30 09:59:35;;;;;;;1.27;0.82;;;;;;;;;;6218020;22;20023;-95
2022/07/30 10:02:01;;;;;;;3.60;0.80;;;;;;;;;;6213716;22;20047;-94
2022/07/30 10:04:27;;;;;;;1.40;0.70;;;;;;;;;;6220347;23;20032;-95
2022/07/30 10:09:30;;;;;;;4.60;0.95;;;;;;;;;;6211207;23;20120;-96
2022/07/30 10:14:33;;;;;;;2.25;0.47;;;;;;;;;;6215474;23;20721;-95
2022/07/30 10:17:00;;;;;;;2.22;0.45;;;;;;;;;;6229993;22;19988;-96
2022/07/30 10:19:26;;;;;;;3.17;0.60;;;;;;;;;;6233432;22;19996;-95
2022/07/30 10:21:56;;;;;;;2.17;0.30;;;;;;;;;;6200224;23;20078;-95
2022/07/30 10:27:06;;;;;;;2.43;0.47;;;;;;;;;;6231470;23;20068;-96
2022/07/30 10:29:32;;;;;;;1.08;0.43;;;;;;;;;;6238925;23;20001;-96
2022/07/30 10:34:34;;;;;;;0.63;0.37;;;;;;;;;;6224755;23;20016;-96
2022/07/30 10:37:20;;;;;;;0.50;0.30;;;;;;;;;;6234646;22;20025;-96
2022/07/30 10:42:45;;;;;;;1.48;0.70;;;;;;;;;;6214006;22;20012;-96
2022/07/30 10:48:01;;;;;;;1.08;0.60;;;;;;;;;;6219968;23;20005;-96
2022/07/30 10:50:28;;;;;;;0.60;0.30;;;;;;;;;;6211204;23;20027;-96
2022/07/30 10:55:31;;;;;;;1.35;0.52;;;;;;;;;;6196542;22;20032;-95
2022/07/30 10:58:08;;;;;;;2.85;1.30;;;;;;;;;;6208475;23;20001;-96
2022/07/30 11:00:34;;;;;;;;;;;38.70;27.20;;;;;;6209216;23;20009;-96
2022/07/30 11:03:14;;;;;;;1.25;0.63;;;;;;;;;;6206966;23;19908;-96
2022/07/30 11:08:49;;;;;;;0.88;0.30;;;;;;;;;;6195801;23;20041;-95
2022/07/30 12:23:55;;;;;;;0.85;0.43;;;;;;;;;;6234654;22;20087;-94
2022/07/30 12:39:45;;;;;;;1.40;0.77;;;31.90;32.50;;;;;;6202472;22;20726;-96
2022/07/30 12:47:24;;;;;;;2.58;0.80;;;;;;;;;;6205465;22;20745;-96
2022/07/30 12:49:52;;;;;;;3.28;0.90;;;;;;;;;;6212586;23;20009;-96
2022/07/30 12:55:09;;;;;;;2.78;0.50;;;;;;;;;;6211187;23;20021;-96
2022/07/30 13:16:09;;;;;;;1.92;0.50;;;;;;;;;;6209074;23;20005;-95
2022/07/30 13:18:36;;;;;;;5.93;0.90;;;;;;;;;;6206854;23;20004;-96
2022/07/30 13:28:50;;;;;;;1.20;0.60;;;;;;;;;;6208124;22;20017;-96
2022/07/30 13:31:17;;;;;;;1.70;0.50;;;;;;;;;;6225215;23;19992;-96
2022/07/30 13:33:43;;;;;;;1.23;0.77;;;;;;;;;;6235755;22;20076;-96
2022/07/30 13:36:09;;;;;;;1.27;0.60;;;;;;;;;;6230776;23;20000;-95
2022/07/30 13:49:07;;;;;;;2.50;0.88;;;;;;;;;;6197335;22;20064;-96
2022/07/30 13:51:33;;;;;;;1.05;0.70;;;;;;;;;;6213285;22;19992;-96
2022/07/30 13:53:59;;;;;;;1.05;0.52;;;;;;;;;;6208979;23;20005;-96
2022/07/30 13:56:28;;;;;;;2.85;0.55;;;;;;;;;;6210576;23;20057;-96
2022/07/30 14:04:21;;;;;;;0.50;0.40;;;;;;;;;;6194702;23;20081;-95
2022/07/30 14:06:47;;;;;;;2.22;0.50;;;;;;;;;;6179568;23;20016;-96
2022/07/30 14:09:15;;;;;;;4.53;0.33;;;;;;;;;;6207056;22;20013;-95
2022/07/30 14:27:58;;;;;;;0.73;0.40;;;30.00;36.10;;;;;;6205207;23;20021;-96
2022/07/30 14:30:24;;;;;;;2.47;0.47;;;;;;;;;;6205416;23;19989;-96
2022/07/30 14:32:50;;;;;;;2.25;1.02;;;;;;;;;;6197406;22;20459;-96
2022/07/30 14:35:16;;;;;;;1.52;0.73;;;;;;;;;;6204207;23;20009;-95
2022/07/30 14:45:32;;;;;;;0.82;0.55;;;;;;;;;;6200021;22;20032;-96
2022/07/30 15:21:06;;;;;;;0.57;0.38;;;;;;;;;;6173342;22;20764;-96
2022/07/30 15:36:40;;;;;;;2.15;0.85;;;;;;;;;;6174088;22;20028;-96
2022/07/30 15:39:06;;;;;;;1.73;0.88;;;;;;;;;;6189572;22;20448;-93
2022/07/30 15:41:32;;;;;;;2.47;0.88;;;;;;;;;;6181991;23;20005;-90
2022/07/30 15:43:58;;;;;;;0.87;0.53;;;;;;;;;;6155633;23;20383;-91
2022/07/30 15:46:25;;;;;;;13.70;1.33;;;;;;;;;;6182390;23;20001;-92
2022/07/30 15:48:51;;;;;;;1.50;0.68;;;;;;;;;;6182546;23;20005;-91
2022/07/30 15:51:17;;;;;;;2.50;0.60;;;;;;;;;;6182102;23;20027;-92
2022/07/30 15:53:43;;;;;;;0.95;0.47;;;;;;;;;;6182776;23;20062;-92
2022/07/30 15:56:09;;;;;;;3.80;0.60;;;;;;;;;;6183204;23;20314;-92
2022/07/30 15:58:35;;;;;;;1.00;0.40;;;;;;;;;;6181859;23;20036;-92
2022/07/30 16:01:04;;;;;;;0.65;0.45;;;29.70;36.50;;;;;;6183061;23;20521;-92
2022/07/30 16:03:30;;;;;;;2.97;0.43;;;;;;;;;;6182189;23;20005;-91
2022/07/30 16:05:56;;;;;;;1.25;0.70;;;;;;;;;;6155460;23;20005;-92
2022/07/30 16:08:22;;;;;;;1.35;0.60;;;;;;;;;;6181857;23;20084;-92
2022/07/30 16:10:48;;;;;;;4.22;0.60;;;29.40;36.20;;;;;;6182559;23;20076;-87
2022/07/30 16:13:14;;;;;;;1.23;0.60;;;;;;;;;;6181217;23;20032;-90
2022/07/30 16:15:40;;;;;;;2.20;0.50;;;;;;;;;;6181629;23;20311;-91
2022/07/30 16:18:07;;;;;;;2.25;0.88;;;;;;;;;;6155459;23;20602;-90
2022/07/30 16:20:33;;;;;;;0.63;0.60;;;;;;;;;;6181792;23;20005;-89
2022/07/30 16:22:59;;;;;;;1.38;0.65;;;;;;;;;;6181428;23;20088;-91
2022/07/30 16:25:25;;;;;;;4.65;0.60;;;;;;;;;;6181493;23;21082;-90
2022/07/30 16:27:51;;;;;;;0.37;0.33;;;;;;;;;;6182031;23;20001;-91
2022/07/30 16:30:17;;;;;;;3.55;0.75;;;;;;;;;;6184088;23;20017;-92
2022/07/30 16:32:50;;;;;;;0.85;0.65;;;;;;;;;;6157453;23;20032;-92
2022/07/30 16:35:16;;;;;;;1.58;0.80;;;;;;;;;;6183818;23;20009;-90
2022/07/30 16:37:42;;;;;;;0.98;0.50;;;;;;;;;;6157440;23;20017;-91
2022/07/30 16:40:09;;;;;;;5.47;0.75;;;;;;;;;;6183627;23;20040;-91
2022/07/30 16:42:35;;;;;;;2.30;0.70;;;;;;;;;;6182918;23;20043;-92
2022/07/30 16:45:01;;;;;;;2.92;0.65;;;;;;;;;;6183561;23;20232;-91
2022/07/30 16:47:27;;;;;;;0.98;0.50;;;;;;;;;;6183627;23;20060;-90
2022/07/30 16:49:53;;;;;;;1.40;0.60;;;;;;;;;;6156613;23;20009;-90
2022/07/30 16:52:19;;;;;;;3.08;0.75;;;;;;;;;;6157305;23;20436;-91
2022/07/30 16:54:45;;;;;;;0.45;0.35;;;;;;;;;;6183558;23;20008;-91
2022/07/30 16:57:11;;;;;;;2.00;0.65;;;;;;;;;;6157097;23;20479;-91
2022/07/30 16:59:37;;;;;;;6.60;0.63;;;;;;;;;;6183243;23;20083;-91
2022/07/30 17:02:03;;;;;;;1.85;1.27;;;;;;;;;;6182718;23;20005;-90
2022/07/30 17:04:29;;;;;;;2.95;0.85;;;;;;;;;;6183618;23;20064;-90
2022/07/30 17:06:55;;;;;;;14.73;0.93;;;;;;;;;;6183567;23;20005;-90
2022/07/30 17:09:21;;;;;;;2.97;0.55;;;;;;;;;;6182964;23;20425;-90
2022/07/30 17:11:47;;;;;;;4.68;1.42;;;;;;;;;;6157006;23;20013;-91
2022/07/30 17:14:13;;;;;;;4.03;0.80;;;;;;;;;;6183589;23;20001;-90
2022/07/30 17:16:40;;;;;;;5.03;0.73;;;;;;;;;;6183681;23;20027;-89
2022/07/30 17:19:06;;;;;;;2.03;0.85;;;;;;;;;;6183478;23;20039;-90
2022/07/30 17:21:32;;;;;;;2.63;0.70;;;;;;;;;;6182742;23;20857;-90
2022/07/30 17:23:58;;;;;;;2.42;0.90;;;;;;;;;;6183230;23;20013;-91
2022/07/30 17:26:23;;;;;;;2.10;0.88;;;;;;;;;;6156712;23;20051;-90
2022/07/30 17:28:49;;;;;;;4.43;0.80;;;;;;;;;;6157802;23;20348;-91
2022/07/30 17:31:15;;;;;;;10.70;6.45;;;;;;;;;;6183699;23;20004;-90
2022/07/30 17:33:41;;;;;;;2.05;0.98;;;;;;;;;;6182898;23;20016;-90
2022/07/30 17:36:08;;;;;;;0.43;0.43;;;;;;;;;;6183254;23;20004;-90
2022/07/30 17:38:34;;;;;;;1.02;0.60;;;;;;;;;;6182414;23;20344;-88
2022/07/30 17:41:00;;;;;;;0.93;0.60;;;;;;;;;;6167054;23;20080;-90
2022/07/30 17:43:26;;;;;;;2.95;0.90;;;;;;;;;;6186556;23;20008;-90
2022/07/30 17:45:52;;;;;;;1.33;0.90;;;;;;;;;;6186829;23;20012;-90
2022/07/30 17:48:19;;;;;;;7.47;0.88;;;;;;;;;;6185859;23;20012;-89
2022/07/30 17:50:45;;;;;;;2.45;1.88;;;;;;;;;;6213060;23;20313;-88
2022/07/30 17:53:11;;;;;;;1.42;0.75;;;;;;;;;;6212086;23;20008;-89
2022/07/30 17:55:37;;;;;;;5.68;1.90;;;;;;;;;;6211284;23;20094;-88
2022/07/30 17:58:03;;;;;;;2.50;0.73;;;;;;;;;;6212047;23;20630;-89
2022/07/30 18:00:29;;;;;;;1.30;0.63;;;;;;;;;;6212522;23;20371;-89
2022/07/30 18:02:55;;;;;;;2.08;1.30;;;;;;;;;;6184957;23;20567;-90
2022/07/30 18:05:21;;;;;;;2.25;0.68;;;;;;;;;;6184164;23;20005;-90
2022/07/30 18:07:47;;;;;;;4.35;0.90;;;;;;;;;;6212029;23;20094;-87
2022/07/30 18:10:13;;;;;;;2.45;0.88;;;;;;;;;;6184715;23;20004;-88
2022/07/30 18:12:39;;;;;;;2.15;1.55;;;;;;;;;;6211063;23;20011;-89
2022/07/30 18:15:06;;;;;;;3.85;1.00;;;;;;;;;;6185040;23;20005;-90
2022/07/30 18:17:33;;;;;;;0.73;0.50;;;;;;;;;;6211611;23;20447;-89
2022/07/30 18:19:59;;;;;;;8.23;1.90;;;;;;;;;;6185061;23;20009;-88
2022/07/30 18:22:25;;;;;;;2.55;0.98;;;;;;;;;;6211315;23;20316;-91
2022/07/30 18:24:51;;;;;;;0.75;0.43;;;;;;;;;;6185064;23;20420;-89
2022/07/30 18:27:17;;;;;;;3.85;0.60;;;;;;;;;;6211964;23;20103;-89
2022/07/30 18:29:43;;;;;;;1.90;0.88;;;;;;;;;;6185467;23;20004;-88
2022/07/30 18:32:10;;;;;;;1.33;0.70;;;;;;;;;;6184274;23;20013;-88
2022/07/30 18:34:36;;;;;;;3.40;0.50;;;;;;;;;;6210560;23;20009;-88
2022/07/30 18:37:02;;;;;;;0.98;0.63;;;;;;;;;;6211514;23;20015;-88
2022/07/30 18:39:28;;;;;;;3.25;0.88;;;;;;;;;;6225834;23;20070;-88
2022/07/30 18:41:54;;;;;;;1.95;0.63;;;;;;;;;;6215255;23;20004;-89
2022/07/30 18:44:20;;;;;;;1.17;0.70;;;;;;;;;;6241831;23;20011;-89
2022/07/30 18:46:46;;;;;;;0.93;0.63;;;;;;;;;;6241847;23;20000;-89
2022/07/30 18:49:13;;;;;;;2.20;1.40;;;;;;;;;;6241461;23;20671;-87
2022/07/30 18:51:38;;;;;;;;;;;27.60;40.50;;;;;;6241908;23;20004;-89
2022/07/30 18:54:05;;;;;;;0.60;0.60;;;;;;;;;;6214818;23;20005;-90
2022/07/30 18:56:31;;;;;;;2.70;0.80;;;;;;;;;;6241065;23;20596;-89
2022/07/30 18:58:56;;;;;;;2.05;0.82;;;;;;;;;;6214936;23;20035;-89
2022/07/30 19:01:23;;;;;;;0.57;0.40;;;;;;;;;;6241640;23;20343;-89
2022/07/30 19:03:49;;;;;;;1.75;0.55;;;;;;;;;;6241906;23;20058;-90
2022/07/30 19:06:15;;;;;;;3.33;1.05;;;;;;;;;;6241644;23;20092;-89
2022/07/30 19:08:41;;;;;;;2.63;0.70;;;;;;;;;;6241968;23;20008;-88
2022/07/30 19:11:07;;;;;;;6.70;0.95;;;;;;;;;;6241045;23;20006;-89
2022/07/30 19:13:33;;;;;;;2.15;0.77;;;;;;;;;;6241318;23;20034;-88
2022/07/30 19:15:59;;;;;;;2.13;0.80;;;;;;;;;;6241363;23;20004;-88
2022/07/30 19:18:25;;;;;;;1.92;0.63;;;;;;;;;;6240648;23;20103;-90
2022/07/30 19:20:51;;;;;;;5.28;0.75;;;;;;;;;;6241048;23;20637;-89
2022/07/30 19:23:17;;;;;;;2.90;0.60;;;;;;;;;;6240949;23;20012;-88
2022/07/30 19:25:43;;;;;;;1.67;1.10;;;;;;;;;;6240881;23;20004;-90
2022/07/30 19:28:12;;;;;;;1.80;0.90;;;;;;;;;;6240518;23;20050;-89
2022/07/30 19:30:38;;;;;;;3.50;1.23;;;;;;;;;;6241475;23;20343;-88
2022/07/30 19:33:05;;;;;;;1.57;0.87;;;;;;;;;;6240460;23;20011;-89
2022/07/30 19:35:31;;;;;;;4.70;1.05;;;;;;;;;;6242827;23;20011;-89
2022/07/30 19:37:58;;;;;;;4.15;0.90;;;;;;;;;;6242144;23;20012;-90
2022/07/30 19:40:24;;;;;;;5.85;1.13;;;;;;;;;;6242136;23;20379;-90
2022/07/30 19:42:50;;;;;;;1.45;0.93;;;;;;;;;;6242614;23;20000;-90
2022/07/30 19:45:16;;;;;;;3.00;0.68;;;;;;;;;;6214922;23;20007;-89
2022/07/30 19:47:42;;;;;;;3.72;0.80;;;;;;;;;;6241877;23;20000;-90
2022/07/30 19:50:08;;;;;;;1.77;1.00;;;;;;;;;;6241781;23;20004;-90
2022/07/30 19:52:35;;;;;;;5.97;0.83;;;;;;;;;;6214874;23;20011;-89
2022/07/30 19:55:01;;;;;;;2.20;0.57;;;;;;;;;;6214882;23;20012;-90
2022/07/30 19:57:27;;;;;;;1.70;0.70;;;;;;;;;;6242227;23;19996;-89
2022/07/30 19:59:53;;;;;;;1.38;1.00;;;;;;;;;;6241573;23;20016;-89
2022/07/30 20:02:19;;;;;;;3.10;0.98;;;;;;;;;;6216325;23;20075;-88
2022/07/30 20:04:45;;;;;;;4.18;1.20;;;;;;;;;;6216037;23;20006;-88
2022/07/30 20:07:11;;;;;;;4.15;0.95;;;;;;;;;;6242214;23;20465;-89
2022/07/30 20:09:39;;;;;;;2.78;0.65;;;;;;;;;;6242498;23;20182;-88
2022/07/30 20:12:05;;;;;;;2.25;1.10;;;;;;;;;;6242845;23;20008;-89
2022/07/30 20:14:31;;;;;;;2.08;0.77;;;;;;;;;;6215057;23;20082;-89
2022/07/30 20:16:57;;;;;;;1.80;0.77;;;;;;;;;;6242260;23;20395;-88
2022/07/30 20:19:23;;;;;;;1.17;0.90;;;;;;;;;;6215333;23;20016;-88
2022/07/30 20:21:49;;;;;;;1.40;0.73;;;;;;;;;;6242753;23;20005;-88
2022/07/30 20:24:16;;;;;;;1.23;0.88;;;;;;;;;;6241657;23;20080;-88
2022/07/30 20:26:42;;;;;;;1.85;0.65;;;;;;;;;;6243245;23;20004;-89
2022/07/30 20:29:11;;;;;;;1.98;1.17;;;;;;;;;;6243071;23;20047;-90
2022/07/30 20:31:37;;;;;;;2.28;0.93;;;;;;;;;;6242036;23;20000;-88
2022/07/30 20:34:03;;;;;;;1.95;1.27;;;;;;;;;;6242287;23;20442;-87
2022/07/30 20:36:31;;;;;;;4.07;0.60;;;;;;;;;;6242318;23;20526;-89
2022/07/30 20:38:57;;;;;;;1.42;0.90;;;;;;;;;;6243480;23;20031;-90